Time;durP1;ratioP1;P1;durP2;ratioP2;P2;SDS_P1;SDS_P2;PMS_P1;PMS_P2;Temp;Humidity;BMP_temperature;BMP_pressure;BME280_temperature;BME280_humidity;BME280_pressure;Samples;Min_cycle;Max_cycle;Signal;HPM_P1;HPM_P2
2023/06/06 00:03:31;;;;;;;6.35;2.22;;;;;;;;;;10430748;28;20043;-83
2023/06/06 00:08:33;;;;;;;3.65;1.80;;;;;;;;;;10443842;28;20082;-82
2023/06/06 00:13:35;;;;;;;5.10;2.25;;;;;;;;;;10443989;28;20583;-82
2023/06/06 00:18:36;;;;;;;4.20;2.10;;;;;;;;;;10425541;28;20075;-82
2023/06/06 00:23:37;;;;;;;4.55;2.30;;;;;;;;;;10435012;28;20036;-83
2023/06/06 00:28:38;;;;;;;3.60;1.92;;;;;;;;;;10433458;28;20029;-82
2023/06/06 00:33:39;;;;;;;1.77;1.50;;;;;;;;;;10421936;28;20025;-83
2023/06/06 00:38:40;;;;;;;3.92;1.73;;;;;;;;;;10446854;28;20057;-82
2023/06/06 00:43:41;;;;;;;2.85;1.83;;;;;;;;;;10418469;28;20024;-82
2023/06/06 00:48:42;;;;;;;4.07;2.05;;;;;;;;;;10436784;28;20075;-82
2023/06/06 00:53:44;;;;;;;6.03;2.40;;;;;;;;;;10441446;28;20053;-82
2023/06/06 00:58:45;;;;;;;5.70;2.00;;;;;;;;;;10438338;28;20401;-82
2023/06/06 01:03:46;;;;;;;3.42;1.63;;;;;;;;;;10417986;28;20030;-82
2023/06/06 01:08:48;;;;;;;2.17;1.65;;;;;;;;;;10439558;28;20051;-82
2023/06/06 01:13:55;;;;;;;3.13;1.63;;;;;;;;;;10397336;28;20122;-83
2023/06/06 01:18:57;;;;;;;3.67;1.50;;;;;;;;;;10432071;28;20047;-82
2023/06/06 01:23:58;;;;;;;3.38;1.95;;;;;;;;;;10428340;28;20058;-84
2023/06/06 01:28:59;;;;;;;3.72;2.13;;;;;;;;;;10426909;28;20029;-81
2023/06/06 01:34:04;;;;;;;3.00;2.00;;;;;;;;;;10414257;28;20037;-82
2023/06/06 01:39:05;;;;;;;;;;;;;;;;;;10441748;28;20029;-82
2023/06/06 01:44:08;;;;;;;3.13;1.77;;;;;;;;;;10427414;28;20420;-82
2023/06/06 01:49:09;;;;;;;5.18;2.20;;;;;;;;;;10427976;28;20033;-83
2023/06/06 01:54:11;;;;;;;2.38;1.85;;;;;;;;;;10435277;28;20045;-84
2023/06/06 01:59:12;;;;;;;3.90;1.75;;;;;;;;;;10413334;28;20049;-82
2023/06/06 02:04:12;;;;;;;2.55;1.73;;;;;;;;;;10422701;28;20060;-84
2023/06/06 02:09:14;;;;;;;1.83;1.52;;;;;;;;;;10445213;28;20036;-82
2023/06/06 02:14:15;;;;;;;3.58;1.80;;;;;;;;;;10413829;28;20039;-82
2023/06/06 02:19:16;;;;;;;3.80;2.05;;;;;;;;;;10440098;28;20508;-82
2023/06/06 02:24:18;;;;;;;7.10;2.50;;;;;;;;;;10438263;28;20031;-82
2023/06/06 02:29:20;;;;;;;2.65;1.88;;;;;;;;;;10444916;28;20025;-82
2023/06/06 02:34:21;;;;;;;3.25;1.95;;;;;;;;;;10430500;28;20060;-83
2023/06/06 02:39:22;;;;;;;4.18;2.30;;;;;;;;;;10419175;28;20729;-82
2023/06/06 02:44:23;;;;;;;5.35;2.15;;;;;;;;;;10416704;28;20488;-82
2023/06/06 02:49:27;;;;;;;5.68;2.28;;;;;;;;;;10431410;28;20086;-83
2023/06/06 02:54:28;;;;;;;3.40;2.20;;;;;;;;;;10423204;28;20497;-84
2023/06/06 02:59:29;;;;;;;3.78;2.50;;;;;;;;;;10422669;28;20037;-82
2023/06/06 03:04:30;;;;;;;7.53;2.47;;;;;;;;;;10418345;28;20095;-83
2023/06/06 03:09:31;;;;;;;4.45;2.10;;;;;;;;;;10439151;28;20090;-84
2023/06/06 03:14:32;;;;;;;4.80;2.63;;;;;;;;;;10425647;28;20051;-82
2023/06/06 03:19:33;;;;;;;7.65;2.40;;;;;;;;;;10420530;28;20049;-82
2023/06/06 03:24:35;;;;;;;4.53;2.30;;;;;;;;;;10436880;28;20036;-82
2023/06/06 03:29:36;;;;;;;4.13;2.20;;;;;;;;;;10427242;28;20040;-82
2023/06/06 03:34:39;;;;;;;3.22;2.10;;;;;;;;;;10436716;28;20845;-83
2023/06/06 03:39:40;;;;;;;5.32;2.38;;;;;;;;;;10417130;28;20104;-84
2023/06/06 03:44:43;;;;;;;6.35;2.30;;;;;;;;;;10436837;28;20064;-82
2023/06/06 03:49:44;;;;;;;5.65;2.55;;;;;;;;;;10431688;28;20100;-81
2023/06/06 03:54:45;;;;;;;3.42;2.13;;;;;;;;;;10441945;28;20442;-82
2023/06/06 03:59:46;;;;;;;3.38;2.45;;;;;;;;;;10429713;28;20385;-82
2023/06/06 04:04:50;;;;;;;3.08;2.40;;;;;;;;;;10413972;28;20028;-81
2023/06/06 04:09:51;;;;;;;7.28;3.00;;;;;;;;;;10407806;28;20454;-81
2023/06/06 04:14:52;;;;;;;8.13;2.90;;;;;;;;;;10398358;28;20040;-81
2023/06/06 04:19:55;;;;;;;5.82;2.20;;;;;;;;;;10402316;28;20051;-82
2023/06/06 04:24:56;;;;;;;5.85;2.60;;;;;;;;;;10406844;28;20033;-84
2023/06/06 04:29:58;;;;;;;4.57;2.33;;;;;;;;;;10404545;28;20029;-84
2023/06/06 04:34:59;;;;;;;4.03;2.50;;;;;;;;;;10400057;28;20042;-82
2023/06/06 04:40:00;;;;;;;4.63;2.80;;;;;;;;;;10393897;28;20724;-82
2023/06/06 04:45:05;;;;;;;7.65;3.03;;;;;;;;;;10405323;28;20082;-82
2023/06/06 04:50:06;;;;;;;6.82;3.00;;;;;;;;;;10403731;28;20390;-83
2023/06/06 04:55:08;;;;;;;6.43;2.67;;;;;;;;;;10405544;28;20045;-83
2023/06/06 05:00:09;;;;;;;4.68;2.63;;;;;;;;;;10394377;28;20045;-84
2023/06/06 05:05:10;;;;;;;8.75;2.67;;;;;;;;;;10404225;28;20124;-81
2023/06/06 05:10:11;;;;;;;4.82;2.80;;;;;;;;;;10404235;28;20470;-81
2023/06/06 05:15:12;;;;;;;4.95;2.80;;;;;;;;;;10405078;28;20144;-81
2023/06/06 05:20:13;;;;;;;4.53;3.00;;;;;;;;;;10388920;28;20045;-82
2023/06/06 05:25:15;;;;;;;4.25;2.72;;;;;;;;;;10394289;28;20029;-82
2023/06/06 05:30:16;;;;;;;4.70;2.95;;;;;;;;;;10386932;28;20029;-82
2023/06/06 05:35:17;;;;;;;5.68;3.35;;;;;;;;;;10394484;28;20025;-82
2023/06/06 05:40:18;;;;;;;6.40;2.72;;;;;;;;;;10396643;28;20064;-84
2023/06/06 06:00:07;;;;;;;4.05;3.05;;;;;;;;;;10539955;27;21106;-92
2023/06/06 06:05:09;;;;;;;7.05;2.80;;;;;;;;;;10492551;28;20139;-90
2023/06/06 06:10:10;;;;;;;4.25;2.53;;;;;;;;;;10478027;28;20063;-91
2023/06/06 06:15:11;;;;;;;5.25;2.75;;;;;;;;;;10494481;28;20079;-89
2023/06/06 06:20:13;;;;;;;3.65;2.63;;;;;;;;;;10501059;28;20058;-90
2023/06/06 06:25:16;;;;;;;5.32;2.60;;;;;;;;;;10498549;28;20040;-89
2023/06/06 06:30:18;;;;;;;6.53;2.72;;;;;;;;;;10501106;28;20025;-92
2023/06/06 06:35:19;;;;;;;4.10;2.50;;;;;;;;;;10507058;28;20442;-89
2023/06/06 06:40:20;;;;;;;4.20;2.53;;;;;;;;;;10495764;28;20176;-89
2023/06/06 06:45:23;;;;;;;6.07;2.88;;;;;;;;;;10490560;28;20048;-89
2023/06/06 06:50:24;;;;;;;4.38;2.63;;;;;;;;;;10478253;28;20539;-91
2023/06/06 06:55:25;;;;;;;4.75;3.15;;;;;;;;;;10482737;28;20165;-88
2023/06/06 07:00:26;;;;;;;5.32;3.25;;;;;;;;;;10478608;28;20013;-91
2023/06/06 07:05:27;;;;;;;5.72;2.92;;;;;;;;;;10474850;28;20063;-91
2023/06/06 07:10:29;;;;;;;7.90;3.42;;;;;;;;;;10474907;28;20036;-89
2023/06/06 07:15:30;;;;;;;5.47;3.00;;;;;;;;;;10473302;28;20496;-88
2023/06/06 07:20:31;;;;;;;5.80;2.97;;;;;;;;;;10474676;28;20043;-90
2023/06/06 07:25:33;;;;;;;7.60;3.47;;;;;;;;;;10474294;28;20206;-88
2023/06/06 07:30:35;;;;;;;5.78;3.40;;;;;;;;;;10491313;28;20039;-91
2023/06/06 07:35:36;;;;;;;5.05;2.83;;;;;;;;;;10473681;28;20555;-90
2023/06/06 07:40:37;;;;;;;8.98;3.42;;;;;;;;;;10473286;28;20525;-89
2023/06/06 07:45:38;;;;;;;8.13;3.42;;;;;;;;;;10477303;28;20160;-88
2023/06/06 07:50:40;;;;;;;9.20;3.65;;;;;;;;;;10473203;28;20119;-87
2023/06/06 07:55:41;;;;;;;7.65;3.67;;;;;;;;;;10472195;28;20053;-89
2023/06/06 08:00:44;;;;;;;8.93;3.25;;;;;;;;;;10472907;28;20479;-88
2023/06/06 08:05:45;;;;;;;6.32;3.28;;;;;;;;;;10490371;28;20045;-89
2023/06/06 08:10:46;;;;;;;4.82;2.92;;;;;;;;;;10472197;28;20471;-89
2023/06/06 08:15:48;;;;;;;6.75;3.15;;;;;;;;;;10461509;28;20424;-89
2023/06/06 08:20:49;;;;;;;6.95;3.30;;;;;;;;;;10473126;28;20063;-89
2023/06/06 08:25:55;;;;;;;11.30;4.63;;;;;;;;;;10471866;28;20039;-88
2023/06/06 08:30:56;;;;;;;3.80;2.92;;;;;;;;;;10471341;28;20032;-90
2023/06/06 08:35:57;;;;;;;7.97;3.78;;;;;;;;;;10472087;28;20448;-88
2023/06/06 08:41:00;;;;;;;8.23;3.65;;;;;;;;;;10488723;28;20036;-90
2023/06/06 08:46:01;;;;;;;10.52;3.90;;;;;;;;;;10470952;28;20119;-89
2023/06/06 08:51:04;;;;;;;7.38;4.03;;;;;;;;;;10488798;28;20036;-89
2023/06/06 08:56:07;;;;;;;7.10;3.00;;;;;;;;;;10470252;28;20143;-89
2023/06/06 09:01:09;;;;;;;7.18;3.65;;;;;;;;;;10474688;28;20039;-88
2023/06/06 09:06:12;;;;;;;5.80;3.42;;;;;;;;;;10489315;28;20086;-90
2023/06/06 09:11:13;;;;;;;6.95;3.55;;;;;;;;;;10471533;28;20032;-89
2023/06/06 09:16:14;;;;;;;6.63;3.28;;;;;;;;;;10480158;28;20033;-90
2023/06/06 09:21:15;;;;;;;6.38;3.42;;;;;;;;;;10469438;28;20063;-88
2023/06/06 09:26:21;;;;;;;7.07;3.45;;;;;;;;;;10470294;28;20047;-88
2023/06/06 09:31:22;;;;;;;4.97;3.28;;;;;;;;;;10469382;28;20490;-90
2023/06/06 09:36:24;;;;;;;6.40;3.50;;;;;;;;;;10487701;28;20025;-90
2023/06/06 09:41:27;;;;;;;7.40;3.65;;;;;;;;;;10470556;28;20501;-89
2023/06/06 09:46:28;;;;;;;7.93;3.17;;;;;;;;;;10469147;28;20052;-89
2023/06/06 09:51:31;;;;;;;6.32;3.35;;;;;;;;;;10470270;28;20041;-90
2023/06/06 09:56:33;;;;;;;5.60;3.28;;;;;;;;;;10462977;28;20136;-89
2023/06/06 10:01:35;;;;;;;8.15;3.40;;;;;;;;;;10469483;28;20071;-89
2023/06/06 10:06:39;;;;;;;7.15;3.55;;;;;;;;;;10463618;28;20044;-90
2023/06/06 10:11:40;;;;;;;6.25;2.92;;;;;;;;;;10464074;28;20028;-90
2023/06/06 10:16:41;;;;;;;8.68;3.50;;;;;;;;;;10458171;28;20467;-89
2023/06/06 10:21:42;;;;;;;4.55;3.15;;;;;;;;;;10481989;28;20962;-90
2023/06/06 10:26:43;;;;;;;5.85;3.05;;;;;;;;;;10471140;28;20028;-91
2023/06/06 10:32:04;;;;;;;4.28;2.70;;;;;;;;;;10472012;28;20441;-90
2023/06/06 10:37:18;;;;;;;4.85;2.90;;;;;;;;;;10492158;28;21965;-89
2023/06/06 10:42:19;;;;;;;5.97;3.17;;;;;;;;;;10461582;28;20034;-88
2023/06/06 10:47:32;;;;;;;4.47;2.78;;;;;;;;;;10469408;28;20043;-88
2023/06/06 10:52:43;;;;;;;5.60;2.80;;;;;;;;;;10475865;28;20021;-88
2023/06/06 10:58:05;;;;;;;6.35;2.65;;;;;;;;;;10477797;28;20052;-91
2023/06/06 11:03:12;;;;;;;4.55;2.70;;;;;;;;;;10479232;28;20051;-90
2023/06/06 11:08:13;;;;;;;4.40;2.78;;;;;;;;;;10478730;28;20040;-89
2023/06/06 11:13:26;;;;;;;5.10;3.15;;;;;;;;;;10466409;28;20368;-90
2023/06/06 11:18:40;;;;;;;4.57;3.47;;;;;;;;;;10471219;28;20029;-91
2023/06/06 11:23:41;;;;;;;10.07;3.65;;;;;;;;;;10471241;28;20051;-88
2023/06/06 11:28:43;;;;;;;11.35;3.70;;;;;;;;;;10474594;28;20028;-89
2023/06/06 11:33:44;;;;;;;5.88;3.35;;;;;;;;;;10491347;28;20077;-88
2023/06/06 11:38:45;;;;;;;14.15;3.70;;;;;;;;;;10468108;28;20036;-87
2023/06/06 11:43:50;;;;;;;17.45;4.95;;;;;;;;;;10473086;28;20666;-90
2023/06/06 11:48:58;;;;;;;17.35;4.85;;;;;;;;;;10471911;28;20067;-89
2023/06/06 11:54:10;;;;;;;15.98;4.40;;;;;;;;;;10465638;28;20025;-87
2023/06/06 11:59:19;;;;;;;22.40;5.75;;;;;;;;;;10458993;28;20041;-90
2023/06/06 12:04:21;;;;;;;26.58;6.50;;;;;;;;;;10468489;28;20025;-89
2023/06/06 12:09:23;;;;;;;8.57;4.72;;;;;;;;;;10470644;28;20174;-88
2023/06/06 12:14:25;;;;;;;14.73;4.18;;;;;;;;;;10461752;28;20127;-87
2023/06/06 12:19:26;;;;;;;7.35;4.40;;;;;;;;;;10472953;28;20147;-87
2023/06/06 12:24:28;;;;;;;11.85;3.97;;;;;;;;;;10489977;28;20032;-88
2023/06/06 12:29:30;;;;;;;20.60;4.88;;;;;;;;;;10455973;28;20067;-89
2023/06/06 12:34:53;;;;;;;7.72;4.20;;;;;;;;;;10470216;28;20089;-87
2023/06/06 12:39:54;;;;;;;5.78;3.70;;;;;;;;;;10469921;28;20488;-89
2023/06/06 12:44:56;;;;;;;3.90;2.97;;;;;;;;;;10468244;28;20533;-89
2023/06/06 12:50:06;;;;;;;9.75;3.38;;;;;;;;;;10470452;28;20031;-87
2023/06/06 12:55:07;;;;;;;18.67;4.05;;;;;;;;;;10467648;28;20139;-88
2023/06/06 13:00:10;;;;;;;10.57;3.50;;;;;;;;;;10485354;28;20059;-88
2023/06/06 13:05:12;;;;;;;9.50;3.58;;;;;;;;;;10466811;28;20476;-89
2023/06/06 13:10:13;;;;;;;8.57;3.78;;;;;;;;;;10473912;28;20181;-89
2023/06/06 13:15:15;;;;;;;9.15;3.50;;;;;;;;;;10468567;28;20064;-88
2023/06/06 13:20:16;;;;;;;12.13;3.92;;;;;;;;;;10483337;28;20068;-87
2023/06/06 13:25:19;;;;;;;11.73;4.18;;;;;;;;;;10486468;28;20021;-90
2023/06/06 13:30:22;;;;;;;9.70;4.40;;;;;;;;;;10464135;28;20494;-91
2023/06/06 13:35:23;;;;;;;6.65;3.92;;;;;;;;;;10461983;28;20033;-87
2023/06/06 13:40:24;;;;;;;6.53;4.00;;;;;;;;;;10471400;28;20185;-88
2023/06/06 13:45:26;;;;;;;5.43;3.85;;;;;;;;;;10462965;28;20081;-89
2023/06/06 13:50:29;;;;;;;9.73;4.30;;;;;;;;;;10479949;28;20795;-90
2023/06/06 13:55:31;;;;;;;7.35;5.35;;;;;;;;;;10466911;28;20730;-89
2023/06/06 14:00:32;;;;;;;9.82;5.20;;;;;;;;;;10466876;28;20052;-90
2023/06/06 14:05:33;;;;;;;8.25;5.45;;;;;;;;;;10477855;23;20044;-85
2023/06/06 14:10:35;;;;;;;10.48;5.68;;;;;;;;;;10478741;28;20047;-88
2023/06/06 14:15:36;;;;;;;11.25;6.18;;;;;;;;;;10493721;28;20486;-90
2023/06/06 14:20:48;;;;;;;8.40;6.45;;;;;;;;;;10476621;28;20016;-89
2023/06/06 14:25:50;;;;;;;8.43;5.90;;;;;;;;;;10476660;28;20040;-87
2023/06/06 14:30:51;;;;;;;9.18;5.90;;;;;;;;;;10486334;28;20031;-87
2023/06/06 14:35:52;;;;;;;8.88;5.93;;;;;;;;;;10473114;28;20045;-89
2023/06/06 14:40:56;;;;;;;6.88;5.10;;;;;;;;;;10447045;28;20031;-88
2023/06/06 14:45:57;;;;;;;9.32;5.97;;;;;;;;;;10455781;28;20375;-86
2023/06/06 14:50:58;;;;;;;8.05;6.13;;;;;;;;;;10470694;28;20025;-89
2023/06/06 14:55:59;;;;;;;11.00;7.28;;;;;;;;;;10476063;28;20468;-89
2023/06/06 15:01:00;;;;;;;9.95;6.40;;;;;;;;;;10452496;28;20033;-89
2023/06/06 15:06:03;;;;;;;13.02;6.95;;;;;;;;;;10469353;28;20056;-89
2023/06/06 15:11:05;;;;;;;17.75;9.10;;;;;;;;;;10469923;28;20371;-89
2023/06/06 15:16:08;;;;;;;16.17;8.35;;;;;;;;;;10487453;28;20108;-89
2023/06/06 15:21:09;;;;;;;11.82;6.18;;;;;;;;;;10476354;28;20025;-89
2023/06/06 15:26:13;;;;;;;9.57;5.95;;;;;;;;;;10478314;28;20021;-89
2023/06/06 15:31:15;;;;;;;8.98;5.57;;;;;;;;;;10472519;28;20384;-89
2023/06/06 15:36:19;;;;;;;8.05;5.45;;;;;;;;;;10492199;28;20039;-89
2023/06/06 15:41:26;;;;;;;8.05;5.13;;;;;;;;;;10478245;28;20093;-88
2023/06/06 15:46:30;;;;;;;9.40;5.07;;;;;;;;;;10467986;28;20025;-88
2023/06/06 15:51:31;;;;;;;8.63;4.70;;;;;;;;;;10491121;28;20029;-89
2023/06/06 16:02:14;;;;;;;10.18;5.47;;;;;;;;;;10471485;28;20384;-88
2023/06/06 16:07:15;;;;;;;7.95;5.28;;;;;;;;;;10490760;28;20032;-89
2023/06/06 16:12:17;;;;;;;7.85;5.30;;;;;;;;;;10483367;28;20471;-88
2023/06/06 16:17:18;;;;;;;7.60;4.22;;;;;;;;;;10488365;28;20089;-87
2023/06/06 16:22:20;;;;;;;5.78;4.50;;;;;;;;;;10469437;28;20046;-86
2023/06/06 16:27:21;;;;;;;6.75;4.55;;;;;;;;;;10490948;28;20024;-86
2023/06/06 16:32:22;;;;;;;6.97;4.90;;;;;;;;;;10480543;28;20035;-84
2023/06/06 16:37:24;;;;;;;6.55;4.82;;;;;;;;;;10489464;28;20043;-84
2023/06/06 16:42:25;;;;;;;6.60;5.00;;;;;;;;;;10470215;28;20025;-86
2023/06/06 16:47:29;;;;;;;7.50;5.00;;;;;;;;;;10464871;28;20040;-87
2023/06/06 16:52:30;;;;;;;7.33;5.00;;;;;;;;;;10471089;28;20029;-87
2023/06/06 16:57:31;;;;;;;8.02;4.72;;;;;;;;;;10470294;28;20024;-90
2023/06/06 17:02:33;;;;;;;8.48;5.15;;;;;;;;;;10470003;28;20044;-87
2023/06/06 17:07:37;;;;;;;7.60;4.68;;;;;;;;;;10488639;28;20085;-86
2023/06/06 17:12:38;;;;;;;8.32;5.35;;;;;;;;;;10467474;28;20055;-86
2023/06/06 17:17:45;;;;;;;8.60;4.97;;;;;;;;;;10471400;28;20055;-84
2023/06/06 17:23:02;;;;;;;7.10;4.97;;;;;;;;;;10470978;28;20099;-88
2023/06/06 17:39:25;;;;;;;8.00;5.80;;;;;;;;;;10486287;28;20479;-84
2023/06/06 17:44:26;;;;;;;10.00;6.43;;;;;;;;;;10454085;28;20020;-83
2023/06/06 17:49:27;;;;;;;8.65;5.75;;;;;;;;;;10487034;28;20013;-83
2023/06/06 17:54:29;;;;;;;7.70;6.05;;;;;;;;;;10501147;28;20024;-83
2023/06/06 17:59:30;;;;;;;7.95;5.45;;;;;;;;;;10485077;28;20041;-85
2023/06/06 18:04:31;;;;;;;9.15;5.85;;;;;;;;;;10482447;28;20499;-86
2023/06/06 18:09:33;;;;;;;12.63;6.88;;;;;;;;;;10467097;28;20031;-86
2023/06/06 18:14:37;;;;;;;8.60;6.50;;;;;;;;;;10467677;28;21613;-86
2023/06/06 18:19:38;;;;;;;10.43;6.55;;;;;;;;;;10470205;28;20029;-88
2023/06/06 18:24:39;;;;;;;11.23;6.35;;;;;;;;;;10486443;28;20028;-84
2023/06/06 18:29:40;;;;;;;11.38;7.03;;;;;;;;;;10464204;28;20033;-84
2023/06/06 18:34:41;;;;;;;10.68;6.95;;;;;;;;;;10476409;28;20033;-86
2023/06/06 18:39:43;;;;;;;11.95;6.95;;;;;;;;;;10479729;23;20473;-86
2023/06/06 18:44:44;;;;;;;11.30;6.60;;;;;;;;;;10444281;28;20115;-85
2023/06/06 18:49:45;;;;;;;11.73;6.82;;;;;;;;;;10425247;28;20036;-87
2023/06/06 18:54:46;;;;;;;10.63;6.22;;;;;;;;;;10441151;28;20029;-89
2023/06/06 18:59:47;;;;;;;9.43;6.53;;;;;;;;;;10446268;28;20055;-86
2023/06/06 19:04:53;;;;;;;10.15;6.93;;;;;;;;;;10450986;28;20029;-86
2023/06/06 19:09:55;;;;;;;10.05;6.47;;;;;;;;;;10452799;28;20033;-86
2023/06/06 19:14:56;;;;;;;8.68;6.05;;;;;;;;;;10426315;28;20056;-88
2023/06/06 19:19:57;;;;;;;7.97;5.93;;;;;;;;;;10430010;28;20033;-88
2023/06/06 19:25:02;;;;;;;8.85;6.32;;;;;;;;;;10450613;28;20041;-87
2023/06/06 19:30:03;;;;;;;11.40;6.22;;;;;;;;;;10424773;28;20032;-85
2023/06/06 19:35:07;;;;;;;10.93;6.18;;;;;;;;;;10450706;28;20029;-86
2023/06/06 19:40:19;;;;;;;8.95;6.25;;;;;;;;;;10427735;28;20053;-85
2023/06/06 19:45:20;;;;;;;10.95;6.55;;;;;;;;;;10430411;28;20036;-90
2023/06/06 19:50:23;;;;;;;10.45;7.30;;;;;;;;;;10408709;28;20574;-89
2023/06/06 19:55:24;;;;;;;9.50;6.93;;;;;;;;;;10431797;28;20079;-87
2023/06/06 20:00:25;;;;;;;10.43;7.13;;;;;;;;;;10425657;28;20037;-86
2023/06/06 20:05:27;;;;;;;9.43;6.90;;;;;;;;;;10399088;28;20024;-89
2023/06/06 20:10:29;;;;;;;11.07;7.93;;;;;;;;;;10430300;28;20024;-87
2023/06/06 20:15:30;;;;;;;13.05;8.23;;;;;;;;;;10410665;28;20480;-89
2023/06/06 20:20:34;;;;;;;13.00;8.85;;;;;;;;;;10425419;28;20036;-86
2023/06/06 20:25:41;;;;;;;12.93;8.45;;;;;;;;;;10412657;28;20380;-87
2023/06/06 20:30:47;;;;;;;11.77;8.48;;;;;;;;;;10409549;28;20040;-89
2023/06/06 20:35:50;;;;;;;10.57;8.70;;;;;;;;;;10418886;23;20404;-86
2023/06/06 20:40:51;;;;;;;11.27;9.07;;;;;;;;;;10416118;28;20025;-88
2023/06/06 20:45:52;;;;;;;14.48;9.48;;;;;;;;;;10411426;28;20025;-88
2023/06/06 20:50:53;;;;;;;14.98;10.00;;;;;;;;;;10415414;28;20392;-86
2023/06/06 20:55:56;;;;;;;14.05;10.60;;;;;;;;;;10402986;28;20099;-88
2023/06/06 21:00:57;;;;;;;19.33;11.02;;;;;;;;;;10412111;28;20455;-87
2023/06/06 21:05:58;;;;;;;18.30;10.98;;;;;;;;;;10429551;28;20021;-87
2023/06/06 21:11:00;;;;;;;16.55;10.98;;;;;;;;;;10406515;28;20037;-87
2023/06/06 21:16:01;;;;;;;16.05;12.07;;;;;;;;;;10408252;28;20056;-87
2023/06/06 21:21:02;;;;;;;16.45;11.25;;;;;;;;;;10428023;28;20044;-86
2023/06/06 21:26:03;;;;;;;14.60;11.13;;;;;;;;;;10447276;28;20365;-87
2023/06/06 21:31:06;;;;;;;15.80;11.57;;;;;;;;;;10446550;28;20063;-87
2023/06/06 21:36:07;;;;;;;15.88;11.90;;;;;;;;;;10465821;22;20780;-87
2023/06/06 21:41:12;;;;;;;16.63;12.40;;;;;;;;;;10450714;28;20021;-86
2023/06/06 21:46:15;;;;;;;19.52;14.20;;;;;;;;;;10429464;28;20034;-87
2023/06/06 21:51:16;;;;;;;19.08;13.43;;;;;;;;;;10416364;28;20025;-86
2023/06/06 21:56:17;;;;;;;19.92;13.93;;;;;;;;;;10442080;28;20029;-89
2023/06/06 22:01:18;;;;;;;18.65;13.45;;;;;;;;;;10445188;28;20025;-88
2023/06/06 22:06:19;;;;;;;20.40;13.95;;;;;;;;;;10446494;28;20349;-86
2023/06/06 22:11:20;;;;;;;20.00;14.23;;;;;;;;;;10445707;28;20039;-88
2023/06/06 22:16:22;;;;;;;17.67;14.00;;;;;;;;;;10441671;28;20032;-87
2023/06/06 22:21:23;;;;;;;18.90;15.20;;;;;;;;;;10427777;28;20108;-86
2023/06/06 22:26:26;;;;;;;20.55;16.27;;;;;;;;;;10437353;28;20124;-87
2023/06/06 22:31:27;;;;;;;24.48;16.20;;;;;;;;;;10432190;28;20028;-87
2023/06/06 22:36:28;;;;;;;22.20;15.73;;;;;;;;;;10452177;28;20107;-87
2023/06/06 22:41:30;;;;;;;24.08;15.55;;;;;;;;;;10452967;28;20032;-89
2023/06/06 22:46:31;;;;;;;23.40;16.75;;;;;;;;;;10451230;28;20025;-88
2023/06/06 22:51:33;;;;;;;22.67;16.17;;;;;;;;;;10430680;28;20656;-86
2023/06/06 22:56:34;;;;;;;24.33;16.77;;;;;;;;;;10453426;28;20596;-88
2023/06/06 23:01:35;;;;;;;21.35;16.60;;;;;;;;;;10450901;28;20044;-88
2023/06/06 23:06:39;;;;;;;22.00;16.67;;;;;;;;;;10434486;28;20044;-87
2023/06/06 23:11:40;;;;;;;21.92;18.02;;;;;;;;;;10452038;28;20013;-86
2023/06/06 23:16:41;;;;;;;25.13;18.88;;;;;;;;;;10423891;28;20132;-87
2023/06/06 23:21:42;;;;;;;24.35;18.80;;;;;;;;;;10443551;28;20031;-87
2023/06/06 23:26:44;;;;;;;24.77;19.23;;;;;;;;;;10451447;28;20358;-86
2023/06/06 23:31:47;;;;;;;24.55;18.98;;;;;;;;;;10430894;28;20025;-87
2023/06/06 23:36:48;;;;;;;23.63;18.88;;;;;;;;;;10432256;28;20036;-88
2023/06/06 23:41:50;;;;;;;24.85;19.63;;;;;;;;;;10450844;28;20017;-88
2023/06/06 23:46:51;;;;;;;26.67;20.48;;;;;;;;;;10447555;28;20124;-86
2023/06/06 23:51:52;;;;;;;23.98;19.58;;;;;;;;;;10432222;28;20350;-87
2023/06/06 23:56:53;;;;;;;26.02;19.67;;;;;;;;;;10431066;28;20047;-87
